sensor_id;sensor_type;location;lat;lon;timestamp;P1;durP1;ratioP1;P2;durP2;ratioP2
4909;SDS011;2470;49.868;8.660;2023-08-06T00:01:28;2.55;;;2.35;;
4909;SDS011;2470;49.868;8.660;2023-08-06T00:03:54;4.22;;;2.42;;
4909;SDS011;2470;49.868;8.660;2023-08-06T00:06:19;2.95;;;2.17;;
4909;SDS011;2470;49.868;8.660;2023-08-06T00:08:45;5.10;;;2.55;;
4909;SDS011;2470;49.868;8.660;2023-08-06T00:11:11;4.07;;;2.33;;
4909;SDS011;2470;49.868;8.660;2023-08-06T00:13:37;2.42;;;2.22;;
4909;SDS011;2470;49.868;8.660;2023-08-06T00:16:12;2.58;;;2.03;;
4909;SDS011;2470;49.868;8.660;2023-08-06T00:18:38;2.53;;;2.25;;
4909;SDS011;2470;49.868;8.660;2023-08-06T00:21:05;5.00;;;2.80;;
4909;SDS011;2470;49.868;8.660;2023-08-06T00:23:30;4.47;;;3.22;;
4909;SDS011;2470;49.868;8.660;2023-08-06T00:25:56;4.75;;;2.60;;
4909;SDS011;2470;49.868;8.660;2023-08-06T00:28:21;4.80;;;3.15;;
4909;SDS011;2470;49.868;8.660;2023-08-06T00:30:52;3.90;;;2.30;;
4909;SDS011;2470;49.868;8.660;2023-08-06T00:33:18;4.45;;;3.03;;
4909;SDS011;2470;49.868;8.660;2023-08-06T00:35:44;8.52;;;2.22;;
4909;SDS011;2470;49.868;8.660;2023-08-06T00:38:09;3.78;;;2.50;;
4909;SDS011;2470;49.868;8.660;2023-08-06T00:40:35;5.53;;;2.28;;
4909;SDS011;2470;49.868;8.660;2023-08-06T00:43:00;4.65;;;2.50;;
4909;SDS011;2470;49.868;8.660;2023-08-06T00:45:26;3.55;;;2.42;;
4909;SDS011;2470;49.868;8.660;2023-08-06T00:47:54;3.08;;;2.22;;
4909;SDS011;2470;49.868;8.660;2023-08-06T00:50:21;3.00;;;2.25;;
4909;SDS011;2470;49.868;8.660;2023-08-06T00:52:48;4.15;;;2.45;;
4909;SDS011;2470;49.868;8.660;2023-08-06T00:55:14;4.50;;;2.75;;
4909;SDS011;2470;49.868;8.660;2023-08-06T00:57:40;9.00;;;2.90;;
4909;SDS011;2470;49.868;8.660;2023-08-06T01:00:06;2.95;;;2.50;;
4909;SDS011;2470;49.868;8.660;2023-08-06T01:02:32;2.95;;;2.58;;
4909;SDS011;2470;49.868;8.660;2023-08-06T01:04:58;7.18;;;2.50;;
4909;SDS011;2470;49.868;8.660;2023-08-06T01:15:49;2.40;;;2.00;;
4909;SDS011;2470;49.868;8.660;2023-08-06T01:18:19;2.55;;;2.03;;
4909;SDS011;2470;49.868;8.660;2023-08-06T01:20:45;3.38;;;2.30;;
4909;SDS011;2470;49.868;8.660;2023-08-06T01:23:10;9.52;;;2.47;;
4909;SDS011;2470;49.868;8.660;2023-08-06T01:25:40;2.85;;;2.20;;
4909;SDS011;2470;49.868;8.660;2023-08-06T01:28:18;4.05;;;2.40;;
4909;SDS011;2470;49.868;8.660;2023-08-06T01:30:48;6.55;;;2.20;;
4909;SDS011;2470;49.868;8.660;2023-08-06T01:33:16;4.10;;;2.90;;
4909;SDS011;2470;49.868;8.660;2023-08-06T01:35:46;4.38;;;2.05;;
4909;SDS011;2470;49.868;8.660;2023-08-06T01:38:14;5.43;;;1.80;;
4909;SDS011;2470;49.868;8.660;2023-08-06T01:40:40;3.70;;;1.98;;
4909;SDS011;2470;49.868;8.660;2023-08-06T01:43:05;4.07;;;2.20;;
4909;SDS011;2470;49.868;8.660;2023-08-06T01:45:31;5.38;;;2.25;;
4909;SDS011;2470;49.868;8.660;2023-08-06T01:47:56;7.90;;;2.05;;
4909;SDS011;2470;49.868;8.660;2023-08-06T01:50:22;3.38;;;1.63;;
4909;SDS011;2470;49.868;8.660;2023-08-06T01:52:48;2.70;;;2.00;;
4909;SDS011;2470;49.868;8.660;2023-08-06T01:55:13;1.60;;;1.50;;
4909;SDS011;2470;49.868;8.660;2023-08-06T01:57:39;4.32;;;2.63;;
4909;SDS011;2470;49.868;8.660;2023-08-06T02:00:04;5.00;;;2.00;;
4909;SDS011;2470;49.868;8.660;2023-08-06T02:02:30;2.65;;;1.65;;
4909;SDS011;2470;49.868;8.660;2023-08-06T02:04:56;2.20;;;1.70;;
4909;SDS011;2470;49.868;8.660;2023-08-06T02:07:23;1.75;;;1.60;;
4909;SDS011;2470;49.868;8.660;2023-08-06T02:09:48;2.95;;;2.20;;
4909;SDS011;2470;49.868;8.660;2023-08-06T02:12:14;2.33;;;1.60;;
4909;SDS011;2470;49.868;8.660;2023-08-06T02:14:39;2.13;;;1.88;;
4909;SDS011;2470;49.868;8.660;2023-08-06T02:17:05;1.98;;;1.77;;
4909;SDS011;2470;49.868;8.660;2023-08-06T02:19:30;2.63;;;1.70;;
4909;SDS011;2470;49.868;8.660;2023-08-06T02:21:56;3.47;;;1.60;;
4909;SDS011;2470;49.868;8.660;2023-08-06T02:24:21;5.80;;;2.30;;
4909;SDS011;2470;49.868;8.660;2023-08-06T02:26:47;2.92;;;1.85;;
4909;SDS011;2470;49.868;8.660;2023-08-06T02:29:15;2.10;;;1.60;;
4909;SDS011;2470;49.868;8.660;2023-08-06T02:31:42;1.95;;;1.77;;
4909;SDS011;2470;49.868;8.660;2023-08-06T02:34:07;1.70;;;1.60;;
4909;SDS011;2470;49.868;8.660;2023-08-06T02:36:33;1.88;;;1.60;;
4909;SDS011;2470;49.868;8.660;2023-08-06T02:38:58;2.95;;;1.60;;
4909;SDS011;2470;49.868;8.660;2023-08-06T02:41:24;4.60;;;1.60;;
4909;SDS011;2470;49.868;8.660;2023-08-06T02:43:49;2.42;;;1.90;;
4909;SDS011;2470;49.868;8.660;2023-08-06T02:46:14;2.88;;;1.77;;
4909;SDS011;2470;49.868;8.660;2023-08-06T02:48:40;2.60;;;2.28;;
4909;SDS011;2470;49.868;8.660;2023-08-06T02:51:05;8.63;;;1.80;;
4909;SDS011;2470;49.868;8.660;2023-08-06T02:53:31;4.25;;;2.00;;
4909;SDS011;2470;49.868;8.660;2023-08-06T02:55:56;2.50;;;2.00;;
4909;SDS011;2470;49.868;8.660;2023-08-06T02:58:22;2.47;;;1.80;;
4909;SDS011;2470;49.868;8.660;2023-08-06T03:01:00;1.83;;;1.58;;
4909;SDS011;2470;49.868;8.660;2023-08-06T03:03:28;2.88;;;1.85;;
4909;SDS011;2470;49.868;8.660;2023-08-06T03:05:57;2.00;;;1.70;;
4909;SDS011;2470;49.868;8.660;2023-08-06T03:08:23;2.53;;;2.05;;
4909;SDS011;2470;49.868;8.660;2023-08-06T03:10:49;4.88;;;1.98;;
4909;SDS011;2470;49.868;8.660;2023-08-06T03:13:18;5.50;;;1.90;;
4909;SDS011;2470;49.868;8.660;2023-08-06T03:15:57;6.95;;;2.30;;
4909;SDS011;2470;49.868;8.660;2023-08-06T03:18:24;3.05;;;1.70;;
4909;SDS011;2470;49.868;8.660;2023-08-06T03:20:51;3.13;;;2.17;;
4909;SDS011;2470;49.868;8.660;2023-08-06T03:23:17;2.55;;;2.08;;
4909;SDS011;2470;49.868;8.660;2023-08-06T03:25:42;2.50;;;1.92;;
4909;SDS011;2470;49.868;8.660;2023-08-06T03:28:08;2.65;;;2.10;;
4909;SDS011;2470;49.868;8.660;2023-08-06T03:30:34;3.53;;;1.80;;
4909;SDS011;2470;49.868;8.660;2023-08-06T03:32:59;1.58;;;1.48;;
4909;SDS011;2470;49.868;8.660;2023-08-06T03:35:25;2.83;;;2.00;;
4909;SDS011;2470;49.868;8.660;2023-08-06T03:37:50;3.28;;;1.95;;
4909;SDS011;2470;49.868;8.660;2023-08-06T03:40:16;1.83;;;1.60;;
4909;SDS011;2470;49.868;8.660;2023-08-06T03:42:41;2.38;;;1.77;;
4909;SDS011;2470;49.868;8.660;2023-08-06T03:45:07;2.83;;;1.42;;
4909;SDS011;2470;49.868;8.660;2023-08-06T03:47:33;1.98;;;1.50;;
4909;SDS011;2470;49.868;8.660;2023-08-06T03:49:59;2.60;;;1.70;;
4909;SDS011;2470;49.868;8.660;2023-08-06T03:52:24;2.20;;;1.98;;
4909;SDS011;2470;49.868;8.660;2023-08-06T03:54:50;4.20;;;1.88;;
4909;SDS011;2470;49.868;8.660;2023-08-06T03:57:15;2.30;;;1.92;;
4909;SDS011;2470;49.868;8.660;2023-08-06T03:59:41;6.75;;;1.60;;
4909;SDS011;2470;49.868;8.660;2023-08-06T04:02:06;3.45;;;1.95;;
4909;SDS011;2470;49.868;8.660;2023-08-06T04:04:32;1.38;;;1.27;;
4909;SDS011;2470;49.868;8.660;2023-08-06T04:06:57;5.07;;;2.40;;
4909;SDS011;2470;49.868;8.660;2023-08-06T04:09:23;1.90;;;1.70;;
4909;SDS011;2470;49.868;8.660;2023-08-06T04:11:48;3.30;;;1.88;;
4909;SDS011;2470;49.868;8.660;2023-08-06T04:14:14;2.78;;;1.95;;
4909;SDS011;2470;49.868;8.660;2023-08-06T04:16:39;3.13;;;2.60;;
4909;SDS011;2470;49.868;8.660;2023-08-06T04:19:05;3.17;;;2.17;;
4909;SDS011;2470;49.868;8.660;2023-08-06T04:21:30;5.93;;;2.53;;
4909;SDS011;2470;49.868;8.660;2023-08-06T04:23:56;4.63;;;3.03;;
4909;SDS011;2470;49.868;8.660;2023-08-06T04:26:22;2.17;;;1.98;;
4909;SDS011;2470;49.868;8.660;2023-08-06T04:28:47;3.58;;;2.45;;
4909;SDS011;2470;49.868;8.660;2023-08-06T04:31:13;3.60;;;2.60;;
4909;SDS011;2470;49.868;8.660;2023-08-06T04:33:39;5.05;;;2.92;;
4909;SDS011;2470;49.868;8.660;2023-08-06T04:36:05;3.42;;;1.85;;
4909;SDS011;2470;49.868;8.660;2023-08-06T04:38:31;3.00;;;2.20;;
4909;SDS011;2470;49.868;8.660;2023-08-06T04:40:56;3.45;;;2.70;;
4909;SDS011;2470;49.868;8.660;2023-08-06T04:43:22;2.15;;;1.95;;
4909;SDS011;2470;49.868;8.660;2023-08-06T04:45:53;2.20;;;1.83;;
4909;SDS011;2470;49.868;8.660;2023-08-06T04:48:19;4.03;;;2.67;;
4909;SDS011;2470;49.868;8.660;2023-08-06T04:50:45;5.18;;;2.63;;
4909;SDS011;2470;49.868;8.660;2023-08-06T04:53:12;2.70;;;1.90;;
4909;SDS011;2470;49.868;8.660;2023-08-06T04:55:38;2.17;;;1.98;;
4909;SDS011;2470;49.868;8.660;2023-08-06T04:58:03;3.38;;;1.48;;
4909;SDS011;2470;49.868;8.660;2023-08-06T05:00:29;3.35;;;2.05;;
4909;SDS011;2470;49.868;8.660;2023-08-06T05:02:55;6.40;;;1.98;;
4909;SDS011;2470;49.868;8.660;2023-08-06T05:05:20;6.28;;;2.47;;
4909;SDS011;2470;49.868;8.660;2023-08-06T05:07:47;3.28;;;2.08;;
4909;SDS011;2470;49.868;8.660;2023-08-06T05:10:14;1.60;;;1.50;;
4909;SDS011;2470;49.868;8.660;2023-08-06T05:12:40;1.75;;;1.65;;
4909;SDS011;2470;49.868;8.660;2023-08-06T05:15:05;6.15;;;1.67;;
4909;SDS011;2470;49.868;8.660;2023-08-06T05:17:31;2.88;;;1.63;;
4909;SDS011;2470;49.868;8.660;2023-08-06T05:19:57;2.92;;;1.80;;
4909;SDS011;2470;49.868;8.660;2023-08-06T05:22:22;4.78;;;1.45;;
4909;SDS011;2470;49.868;8.660;2023-08-06T05:24:48;7.78;;;1.58;;
4909;SDS011;2470;49.868;8.660;2023-08-06T05:27:13;1.60;;;1.50;;
4909;SDS011;2470;49.868;8.660;2023-08-06T05:29:39;3.53;;;1.80;;
4909;SDS011;2470;49.868;8.660;2023-08-06T05:32:05;3.45;;;1.58;;
4909;SDS011;2470;49.868;8.660;2023-08-06T05:34:30;4.57;;;1.50;;
4909;SDS011;2470;49.868;8.660;2023-08-06T05:36:56;2.13;;;1.65;;
4909;SDS011;2470;49.868;8.660;2023-08-06T05:39:21;1.30;;;1.20;;
4909;SDS011;2470;49.868;8.660;2023-08-06T05:41:47;2.13;;;1.63;;
4909;SDS011;2470;49.868;8.660;2023-08-06T05:44:12;2.45;;;1.75;;
4909;SDS011;2470;49.868;8.660;2023-08-06T05:46:38;2.22;;;1.95;;
4909;SDS011;2470;49.868;8.660;2023-08-06T05:49:03;4.93;;;2.22;;
4909;SDS011;2470;49.868;8.660;2023-08-06T05:51:30;3.13;;;2.40;;
4909;SDS011;2470;49.868;8.660;2023-08-06T05:53:55;2.95;;;1.75;;
4909;SDS011;2470;49.868;8.660;2023-08-06T05:56:21;3.92;;;2.40;;
4909;SDS011;2470;49.868;8.660;2023-08-06T05:58:46;3.17;;;1.60;;
4909;SDS011;2470;49.868;8.660;2023-08-06T06:01:12;2.50;;;1.50;;
4909;SDS011;2470;49.868;8.660;2023-08-06T06:03:38;6.03;;;2.03;;
4909;SDS011;2470;49.868;8.660;2023-08-06T06:06:03;3.13;;;2.00;;
4909;SDS011;2470;49.868;8.660;2023-08-06T06:08:29;6.05;;;1.55;;
4909;SDS011;2470;49.868;8.660;2023-08-06T06:10:54;1.95;;;1.60;;
4909;SDS011;2470;49.868;8.660;2023-08-06T06:13:20;1.60;;;1.50;;
4909;SDS011;2470;49.868;8.660;2023-08-06T06:15:46;3.30;;;1.88;;
4909;SDS011;2470;49.868;8.660;2023-08-06T06:18:12;2.72;;;2.03;;
4909;SDS011;2470;49.868;8.660;2023-08-06T06:20:38;4.10;;;1.85;;
4909;SDS011;2470;49.868;8.660;2023-08-06T06:23:03;1.98;;;1.52;;
4909;SDS011;2470;49.868;8.660;2023-08-06T06:25:29;2.75;;;1.88;;
4909;SDS011;2470;49.868;8.660;2023-08-06T06:27:54;2.35;;;1.70;;
4909;SDS011;2470;49.868;8.660;2023-08-06T06:30:20;1.60;;;1.50;;
4909;SDS011;2470;49.868;8.660;2023-08-06T06:32:45;1.52;;;1.40;;
4909;SDS011;2470;49.868;8.660;2023-08-06T06:35:12;3.63;;;1.60;;
4909;SDS011;2470;49.868;8.660;2023-08-06T06:37:37;4.57;;;2.15;;
4909;SDS011;2470;49.868;8.660;2023-08-06T06:40:03;1.73;;;1.58;;
4909;SDS011;2470;49.868;8.660;2023-08-06T06:42:29;3.80;;;2.00;;
4909;SDS011;2470;49.868;8.660;2023-08-06T06:44:55;1.65;;;1.48;;
4909;SDS011;2470;49.868;8.660;2023-08-06T06:47:20;1.27;;;1.10;;
4909;SDS011;2470;49.868;8.660;2023-08-06T06:49:46;1.80;;;1.25;;
4909;SDS011;2470;49.868;8.660;2023-08-06T06:52:11;3.33;;;1.40;;
4909;SDS011;2470;49.868;8.660;2023-08-06T06:54:37;1.90;;;1.20;;
4909;SDS011;2470;49.868;8.660;2023-08-06T06:57:02;2.10;;;1.10;;
4909;SDS011;2470;49.868;8.660;2023-08-06T06:59:28;1.85;;;1.20;;
4909;SDS011;2470;49.868;8.660;2023-08-06T07:01:54;5.13;;;1.70;;
4909;SDS011;2470;49.868;8.660;2023-08-06T07:04:19;1.75;;;1.55;;
4909;SDS011;2470;49.868;8.660;2023-08-06T07:06:45;2.03;;;1.40;;
4909;SDS011;2470;49.868;8.660;2023-08-06T07:09:10;2.28;;;1.52;;
4909;SDS011;2470;49.868;8.660;2023-08-06T07:11:36;1.50;;;1.30;;
4909;SDS011;2470;49.868;8.660;2023-08-06T07:14:01;1.85;;;1.50;;
4909;SDS011;2470;49.868;8.660;2023-08-06T07:16:27;2.60;;;1.75;;
4909;SDS011;2470;49.868;8.660;2023-08-06T07:18:53;1.05;;;1.02;;
4909;SDS011;2470;49.868;8.660;2023-08-06T07:21:19;1.55;;;1.40;;
4909;SDS011;2470;49.868;8.660;2023-08-06T07:23:45;2.90;;;1.85;;
4909;SDS011;2470;49.868;8.660;2023-08-06T07:26:11;5.13;;;1.45;;
4909;SDS011;2470;49.868;8.660;2023-08-06T07:28:36;1.80;;;1.20;;
4909;SDS011;2470;49.868;8.660;2023-08-06T07:31:02;2.65;;;1.27;;
4909;SDS011;2470;49.868;8.660;2023-08-06T07:33:28;3.92;;;1.58;;
4909;SDS011;2470;49.868;8.660;2023-08-06T07:35:54;11.23;;;1.50;;
4909;SDS011;2470;49.868;8.660;2023-08-06T07:38:20;3.03;;;1.65;;
4909;SDS011;2470;49.868;8.660;2023-08-06T07:40:46;1.45;;;1.23;;
4909;SDS011;2470;49.868;8.660;2023-08-06T07:43:11;2.97;;;1.10;;
4909;SDS011;2470;49.868;8.660;2023-08-06T07:45:37;1.67;;;1.35;;
4909;SDS011;2470;49.868;8.660;2023-08-06T07:48:03;1.83;;;1.17;;
4909;SDS011;2470;49.868;8.660;2023-08-06T07:50:29;1.15;;;1.05;;
4909;SDS011;2470;49.868;8.660;2023-08-06T07:52:54;2.42;;;1.50;;
4909;SDS011;2470;49.868;8.660;2023-08-06T07:55:20;1.50;;;1.40;;
4909;SDS011;2470;49.868;8.660;2023-08-06T07:57:45;2.70;;;1.48;;
4909;SDS011;2470;49.868;8.660;2023-08-06T08:00:11;1.63;;;1.15;;
4909;SDS011;2470;49.868;8.660;2023-08-06T08:02:36;1.52;;;1.42;;
4909;SDS011;2470;49.868;8.660;2023-08-06T08:05:02;2.50;;;1.25;;
4909;SDS011;2470;49.868;8.660;2023-08-06T08:07:27;6.38;;;1.73;;
4909;SDS011;2470;49.868;8.660;2023-08-06T08:09:55;2.35;;;1.75;;
4909;SDS011;2470;49.868;8.660;2023-08-06T08:12:21;3.10;;;1.65;;
4909;SDS011;2470;49.868;8.660;2023-08-06T08:14:47;1.55;;;1.27;;
4909;SDS011;2470;49.868;8.660;2023-08-06T08:17:12;3.78;;;1.50;;
4909;SDS011;2470;49.868;8.660;2023-08-06T08:19:38;2.28;;;1.60;;
4909;SDS011;2470;49.868;8.660;2023-08-06T08:22:05;5.63;;;1.48;;
4909;SDS011;2470;49.868;8.660;2023-08-06T08:24:30;5.85;;;1.70;;
4909;SDS011;2470;49.868;8.660;2023-08-06T08:26:56;6.35;;;1.42;;
4909;SDS011;2470;49.868;8.660;2023-08-06T08:29:22;2.25;;;1.42;;
4909;SDS011;2470;49.868;8.660;2023-08-06T08:31:48;1.33;;;1.23;;
4909;SDS011;2470;49.868;8.660;2023-08-06T08:34:15;6.00;;;1.50;;
4909;SDS011;2470;49.868;8.660;2023-08-06T08:36:41;1.45;;;1.33;;
4909;SDS011;2470;49.868;8.660;2023-08-06T08:39:07;1.25;;;1.10;;
4909;SDS011;2470;49.868;8.660;2023-08-06T08:41:33;1.30;;;1.20;;
4909;SDS011;2470;49.868;8.660;2023-08-06T08:44:01;3.33;;;1.30;;
4909;SDS011;2470;49.868;8.660;2023-08-06T08:46:27;2.35;;;1.10;;
4909;SDS011;2470;49.868;8.660;2023-08-06T08:48:54;1.30;;;1.00;;
4909;SDS011;2470;49.868;8.660;2023-08-06T08:51:20;1.65;;;1.10;;
4909;SDS011;2470;49.868;8.660;2023-08-06T08:53:46;1.15;;;1.05;;
4909;SDS011;2470;49.868;8.660;2023-08-06T08:56:13;1.10;;;1.00;;
4909;SDS011;2470;49.868;8.660;2023-08-06T08:58:39;2.00;;;1.17;;
4909;SDS011;2470;49.868;8.660;2023-08-06T09:01:05;1.55;;;1.10;;
4909;SDS011;2470;49.868;8.660;2023-08-06T09:03:32;1.08;;;1.00;;
4909;SDS011;2470;49.868;8.660;2023-08-06T09:05:59;1.45;;;1.00;;
4909;SDS011;2470;49.868;8.660;2023-08-06T09:08:27;1.10;;;1.00;;
4909;SDS011;2470;49.868;8.660;2023-08-06T09:10:59;2.85;;;1.23;;
4909;SDS011;2470;49.868;8.660;2023-08-06T09:13:26;1.10;;;1.00;;
4909;SDS011;2470;49.868;8.660;2023-08-06T09:15:52;5.00;;;1.02;;
4909;SDS011;2470;49.868;8.660;2023-08-06T09:18:25;1.08;;;0.98;;
4909;SDS011;2470;49.868;8.660;2023-08-06T09:20:52;2.15;;;1.00;;
4909;SDS011;2470;49.868;8.660;2023-08-06T09:23:18;0.80;;;0.73;;
4909;SDS011;2470;49.868;8.660;2023-08-06T09:25:45;0.80;;;0.80;;
4909;SDS011;2470;49.868;8.660;2023-08-06T09:28:10;1.20;;;1.00;;
4909;SDS011;2470;49.868;8.660;2023-08-06T09:30:36;1.00;;;0.90;;
4909;SDS011;2470;49.868;8.660;2023-08-06T09:33:02;1.48;;;1.00;;
4909;SDS011;2470;49.868;8.660;2023-08-06T09:35:29;1.25;;;1.10;;
4909;SDS011;2470;49.868;8.660;2023-08-06T09:37:56;0.80;;;0.80;;
4909;SDS011;2470;49.868;8.660;2023-08-06T09:40:32;0.80;;;0.80;;
4909;SDS011;2470;49.868;8.660;2023-08-06T09:42:58;0.90;;;0.90;;
4909;SDS011;2470;49.868;8.660;2023-08-06T09:45:30;0.80;;;0.80;;
4909;SDS011;2470;49.868;8.660;2023-08-06T09:48:07;1.35;;;0.95;;
4909;SDS011;2470;49.868;8.660;2023-08-06T09:50:34;1.45;;;1.35;;
4909;SDS011;2470;49.868;8.660;2023-08-06T09:53:01;1.27;;;1.00;;
4909;SDS011;2470;49.868;8.660;2023-08-06T09:55:28;1.10;;;0.90;;
4909;SDS011;2470;49.868;8.660;2023-08-06T09:57:54;1.10;;;1.00;;
4909;SDS011;2470;49.868;8.660;2023-08-06T10:00:20;0.82;;;0.82;;
4909;SDS011;2470;49.868;8.660;2023-08-06T10:02:48;1.58;;;1.23;;
4909;SDS011;2470;49.868;8.660;2023-08-06T10:05:14;0.70;;;0.70;;
4909;SDS011;2470;49.868;8.660;2023-08-06T10:07:41;1.27;;;0.90;;
4909;SDS011;2470;49.868;8.660;2023-08-06T10:10:08;0.80;;;0.80;;
4909;SDS011;2470;49.868;8.660;2023-08-06T10:12:35;0.85;;;0.85;;
4909;SDS011;2470;49.868;8.660;2023-08-06T10:15:06;1.00;;;0.88;;
4909;SDS011;2470;49.868;8.660;2023-08-06T10:17:36;1.10;;;0.90;;
4909;SDS011;2470;49.868;8.660;2023-08-06T10:20:04;1.05;;;0.95;;
4909;SDS011;2470;49.868;8.660;2023-08-06T10:22:32;0.90;;;0.90;;
4909;SDS011;2470;49.868;8.660;2023-08-06T10:24:58;1.25;;;0.98;;
4909;SDS011;2470;49.868;8.660;2023-08-06T10:27:40;0.70;;;0.70;;
4909;SDS011;2470;49.868;8.660;2023-08-06T10:30:25;1.08;;;0.85;;
4909;SDS011;2470;49.868;8.660;2023-08-06T10:32:57;0.85;;;0.75;;
4909;SDS011;2470;49.868;8.660;2023-08-06T10:35:30;0.75;;;0.75;;
4909;SDS011;2470;49.868;8.660;2023-08-06T10:38:12;0.70;;;0.70;;
4909;SDS011;2470;49.868;8.660;2023-08-06T10:40:50;0.90;;;0.90;;
4909;SDS011;2470;49.868;8.660;2023-08-06T10:43:25;0.77;;;0.75;;
4909;SDS011;2470;49.868;8.660;2023-08-06T10:45:54;0.60;;;0.60;;
4909;SDS011;2470;49.868;8.660;2023-08-06T10:48:35;1.00;;;1.00;;
4909;SDS011;2470;49.868;8.660;2023-08-06T10:51:01;0.73;;;0.73;;
4909;SDS011;2470;49.868;8.660;2023-08-06T10:53:27;2.45;;;0.77;;
4909;SDS011;2470;49.868;8.660;2023-08-06T10:55:53;0.98;;;0.80;;
4909;SDS011;2470;49.868;8.660;2023-08-06T10:58:19;1.05;;;0.90;;
4909;SDS011;2470;49.868;8.660;2023-08-06T11:00:45;1.00;;;0.80;;
4909;SDS011;2470;49.868;8.660;2023-08-06T11:03:11;0.93;;;0.80;;
4909;SDS011;2470;49.868;8.660;2023-08-06T11:05:36;2.70;;;0.80;;
4909;SDS011;2470;49.868;8.660;2023-08-06T11:08:02;0.73;;;0.73;;
4909;SDS011;2470;49.868;8.660;2023-08-06T11:10:28;1.58;;;1.00;;
4909;SDS011;2470;49.868;8.660;2023-08-06T11:12:53;0.70;;;0.70;;
4909;SDS011;2470;49.868;8.660;2023-08-06T11:15:20;1.30;;;0.88;;
4909;SDS011;2470;49.868;8.660;2023-08-06T11:17:46;1.27;;;0.98;;
4909;SDS011;2470;49.868;8.660;2023-08-06T11:20:12;0.70;;;0.70;;
4909;SDS011;2470;49.868;8.660;2023-08-06T11:22:38;1.67;;;0.70;;
4909;SDS011;2470;49.868;8.660;2023-08-06T11:25:04;0.60;;;0.60;;
4909;SDS011;2470;49.868;8.660;2023-08-06T11:27:31;1.17;;;0.80;;
4909;SDS011;2470;49.868;8.660;2023-08-06T11:29:57;0.70;;;0.70;;
4909;SDS011;2470;49.868;8.660;2023-08-06T11:32:22;0.98;;;0.70;;
4909;SDS011;2470;49.868;8.660;2023-08-06T11:34:48;0.90;;;0.80;;
4909;SDS011;2470;49.868;8.660;2023-08-06T11:37:13;2.15;;;1.00;;
4909;SDS011;2470;49.868;8.660;2023-08-06T11:39:39;1.13;;;0.70;;
4909;SDS011;2470;49.868;8.660;2023-08-06T11:42:11;0.80;;;0.80;;
4909;SDS011;2470;49.868;8.660;2023-08-06T11:44:37;0.70;;;0.70;;
4909;SDS011;2470;49.868;8.660;2023-08-06T11:47:03;0.70;;;0.70;;
4909;SDS011;2470;49.868;8.660;2023-08-06T11:49:47;0.80;;;0.80;;
4909;SDS011;2470;49.868;8.660;2023-08-06T11:52:15;1.15;;;0.88;;
4909;SDS011;2470;49.868;8.660;2023-08-06T11:54:59;1.13;;;0.88;;
4909;SDS011;2470;49.868;8.660;2023-08-06T11:57:33;1.05;;;0.93;;
4909;SDS011;2470;49.868;8.660;2023-08-06T12:00:06;1.23;;;1.00;;
4909;SDS011;2470;49.868;8.660;2023-08-06T12:02:34;1.98;;;1.00;;
4909;SDS011;2470;49.868;8.660;2023-08-06T12:05:09;1.20;;;0.93;;
4909;SDS011;2470;49.868;8.660;2023-08-06T12:07:37;0.70;;;0.70;;
4909;SDS011;2470;49.868;8.660;2023-08-06T12:10:04;0.90;;;0.73;;
4909;SDS011;2470;49.868;8.660;2023-08-06T12:12:30;1.10;;;1.00;;
4909;SDS011;2470;49.868;8.660;2023-08-06T12:14:55;1.98;;;0.98;;
4909;SDS011;2470;49.868;8.660;2023-08-06T12:17:21;1.23;;;0.90;;
4909;SDS011;2470;49.868;8.660;2023-08-06T12:19:50;1.00;;;0.90;;
4909;SDS011;2470;49.868;8.660;2023-08-06T12:22:16;1.00;;;0.90;;
4909;SDS011;2470;49.868;8.660;2023-08-06T12:24:42;1.13;;;0.93;;
4909;SDS011;2470;49.868;8.660;2023-08-06T12:27:08;1.02;;;0.98;;
4909;SDS011;2470;49.868;8.660;2023-08-06T12:29:34;0.75;;;0.75;;
4909;SDS011;2470;49.868;8.660;2023-08-06T12:32:00;1.00;;;0.90;;
4909;SDS011;2470;49.868;8.660;2023-08-06T12:34:26;1.20;;;0.93;;
4909;SDS011;2470;49.868;8.660;2023-08-06T12:36:52;1.80;;;1.05;;
4909;SDS011;2470;49.868;8.660;2023-08-06T12:39:17;1.38;;;1.27;;
4909;SDS011;2470;49.868;8.660;2023-08-06T12:41:43;1.50;;;1.00;;
4909;SDS011;2470;49.868;8.660;2023-08-06T12:44:10;1.13;;;1.00;;
4909;SDS011;2470;49.868;8.660;2023-08-06T12:46:36;1.30;;;1.08;;
4909;SDS011;2470;49.868;8.660;2023-08-06T12:49:02;1.55;;;1.00;;
4909;SDS011;2470;49.868;8.660;2023-08-06T12:51:28;0.95;;;0.90;;
4909;SDS011;2470;49.868;8.660;2023-08-06T12:53:53;1.10;;;1.00;;
4909;SDS011;2470;49.868;8.660;2023-08-06T12:56:19;1.23;;;1.00;;
4909;SDS011;2470;49.868;8.660;2023-08-06T12:58:44;1.20;;;1.10;;
4909;SDS011;2470;49.868;8.660;2023-08-06T13:01:10;1.20;;;1.10;;
4909;SDS011;2470;49.868;8.660;2023-08-06T13:03:35;1.17;;;1.02;;
4909;SDS011;2470;49.868;8.660;2023-08-06T13:06:01;8.80;;;1.40;;
4909;SDS011;2470;49.868;8.660;2023-08-06T13:08:26;4.75;;;0.90;;
4909;SDS011;2470;49.868;8.660;2023-08-06T13:10:52;1.15;;;1.00;;
4909;SDS011;2470;49.868;8.660;2023-08-06T13:13:17;1.45;;;1.05;;
4909;SDS011;2470;49.868;8.660;2023-08-06T13:15:43;1.65;;;1.27;;
4909;SDS011;2470;49.868;8.660;2023-08-06T13:18:09;1.10;;;1.00;;
4909;SDS011;2470;49.868;8.660;2023-08-06T13:20:37;1.27;;;1.17;;
4909;SDS011;2470;49.868;8.660;2023-08-06T13:23:06;3.03;;;1.33;;
4909;SDS011;2470;49.868;8.660;2023-08-06T13:25:32;1.73;;;1.42;;
4909;SDS011;2470;49.868;8.660;2023-08-06T13:28:01;1.60;;;1.08;;
4909;SDS011;2470;49.868;8.660;2023-08-06T13:30:28;1.67;;;1.17;;
4909;SDS011;2470;49.868;8.660;2023-08-06T13:32:53;1.55;;;1.15;;
4909;SDS011;2470;49.868;8.660;2023-08-06T13:35:20;0.80;;;0.80;;
4909;SDS011;2470;49.868;8.660;2023-08-06T13:37:46;1.63;;;0.98;;
4909;SDS011;2470;49.868;8.660;2023-08-06T13:40:13;1.77;;;1.27;;
4909;SDS011;2470;49.868;8.660;2023-08-06T13:42:38;1.67;;;1.10;;
4909;SDS011;2470;49.868;8.660;2023-08-06T13:45:04;2.10;;;1.30;;
4909;SDS011;2470;49.868;8.660;2023-08-06T13:47:31;3.28;;;1.10;;
4909;SDS011;2470;49.868;8.660;2023-08-06T13:49:57;1.77;;;1.00;;
4909;SDS011;2470;49.868;8.660;2023-08-06T13:52:22;1.08;;;0.95;;
4909;SDS011;2470;49.868;8.660;2023-08-06T13:54:50;1.00;;;0.90;;
4909;SDS011;2470;49.868;8.660;2023-08-06T13:57:16;0.90;;;0.85;;
4909;SDS011;2470;49.868;8.660;2023-08-06T13:59:42;1.85;;;1.10;;
4909;SDS011;2470;49.868;8.660;2023-08-06T14:02:08;3.20;;;1.15;;
4909;SDS011;2470;49.868;8.660;2023-08-06T14:04:34;1.15;;;0.93;;
4909;SDS011;2470;49.868;8.660;2023-08-06T14:07:00;0.80;;;0.80;;
4909;SDS011;2470;49.868;8.660;2023-08-06T14:09:26;0.70;;;0.70;;
4909;SDS011;2470;49.868;8.660;2023-08-06T14:11:51;1.10;;;0.70;;
4909;SDS011;2470;49.868;8.660;2023-08-06T14:14:17;1.52;;;1.00;;
4909;SDS011;2470;49.868;8.660;2023-08-06T14:16:42;4.78;;;1.20;;
4909;SDS011;2470;49.868;8.660;2023-08-06T14:19:08;0.90;;;0.80;;
4909;SDS011;2470;49.868;8.660;2023-08-06T14:21:33;0.80;;;0.80;;
4909;SDS011;2470;49.868;8.660;2023-08-06T14:23:59;0.70;;;0.70;;
4909;SDS011;2470;49.868;8.660;2023-08-06T14:26:24;1.13;;;0.90;;
4909;SDS011;2470;49.868;8.660;2023-08-06T14:28:50;0.95;;;0.85;;
4909;SDS011;2470;49.868;8.660;2023-08-06T14:31:19;0.80;;;0.80;;
4909;SDS011;2470;49.868;8.660;2023-08-06T14:33:45;1.05;;;0.80;;
4909;SDS011;2470;49.868;8.660;2023-08-06T14:36:11;0.90;;;0.73;;
4909;SDS011;2470;49.868;8.660;2023-08-06T14:38:36;1.00;;;0.88;;
4909;SDS011;2470;49.868;8.660;2023-08-06T14:41:02;0.77;;;0.75;;
4909;SDS011;2470;49.868;8.660;2023-08-06T14:43:27;0.75;;;0.73;;
4909;SDS011;2470;49.868;8.660;2023-08-06T14:45:53;3.25;;;0.90;;
4909;SDS011;2470;49.868;8.660;2023-08-06T14:48:18;0.73;;;0.73;;
4909;SDS011;2470;49.868;8.660;2023-08-06T14:50:44;1.45;;;0.80;;
4909;SDS011;2470;49.868;8.660;2023-08-06T14:53:09;1.35;;;0.80;;
4909;SDS011;2470;49.868;8.660;2023-08-06T14:55:36;0.85;;;0.75;;
4909;SDS011;2470;49.868;8.660;2023-08-06T14:58:02;1.05;;;0.95;;
4909;SDS011;2470;49.868;8.660;2023-08-06T15:00:28;0.80;;;0.80;;
4909;SDS011;2470;49.868;8.660;2023-08-06T15:02:53;0.80;;;0.70;;
4909;SDS011;2470;49.868;8.660;2023-08-06T15:05:19;0.93;;;0.70;;
4909;SDS011;2470;49.868;8.660;2023-08-06T15:07:44;0.80;;;0.80;;
4909;SDS011;2470;49.868;8.660;2023-08-06T15:10:10;1.00;;;0.90;;
4909;SDS011;2470;49.868;8.660;2023-08-06T15:12:36;0.82;;;0.80;;
4909;SDS011;2470;49.868;8.660;2023-08-06T15:15:01;1.05;;;0.93;;
4909;SDS011;2470;49.868;8.660;2023-08-06T15:17:27;1.73;;;1.13;;
4909;SDS011;2470;49.868;8.660;2023-08-06T15:19:55;1.42;;;0.73;;